Torrington, Connecticut
Current Conditions -  °F | °C
As of 7:45 AM on Wednesday 26 Nov 2014 (Local Time) from KOXC Reporting Station
Light Snow Light Snow  
Wind Chill: 32°   Ceiling: 2500
Heat Index: 37°   Visibility: 2.5mi
Dew Point: 27°   Wind: 7mph
Humidity: 65%   Direction: 50°NE
Pressure: 30.18"   Gusts: NA
Location:  41.8°N, 73.09°W
Report Text: KOXC 261245Z 05006KT 2 1/2SM -SN BR BKN025 OVC036 03/M03 A3018
Loading
Personal Weather Stations






























Interactive Weather Map New forecast layout! Learn more

10-Day Weather Forecast

Advertisements
Track Severe Weather on mobile